sensor_id;sensor_type;location;lat;lon;timestamp;P1;durP1;ratioP1;P2;durP2;ratioP2
35074;SDS011;21260;34.984;32.490;2023-06-22T00:01:17;7.00;;;5.43;;
35074;SDS011;21260;34.984;32.490;2023-06-22T00:03:43;7.28;;;5.82;;
35074;SDS011;21260;34.984;32.490;2023-06-22T00:06:10;7.15;;;5.82;;
35074;SDS011;21260;34.984;32.490;2023-06-22T00:08:36;8.02;;;5.97;;
35074;SDS011;21260;34.984;32.490;2023-06-22T00:11:02;8.15;;;5.72;;
35074;SDS011;21260;34.984;32.490;2023-06-22T00:13:29;9.18;;;5.72;;
35074;SDS011;21260;34.984;32.490;2023-06-22T00:15:55;7.43;;;5.80;;
35074;SDS011;21260;34.984;32.490;2023-06-22T00:18:21;7.90;;;5.80;;
35074;SDS011;21260;34.984;32.490;2023-06-22T00:20:53;7.00;;;5.80;;
35074;SDS011;21260;34.984;32.490;2023-06-22T00:23:24;8.10;;;5.55;;
35074;SDS011;21260;34.984;32.490;2023-06-22T00:25:50;8.98;;;5.90;;
35074;SDS011;21260;34.984;32.490;2023-06-22T00:28:17;8.93;;;5.95;;
35074;SDS011;21260;34.984;32.490;2023-06-22T00:30:44;8.75;;;5.70;;
35074;SDS011;21260;34.984;32.490;2023-06-22T00:33:10;9.23;;;5.90;;
35074;SDS011;21260;34.984;32.490;2023-06-22T00:35:37;7.55;;;5.82;;
35074;SDS011;21260;34.984;32.490;2023-06-22T00:38:06;8.43;;;5.30;;
35074;SDS011;21260;34.984;32.490;2023-06-22T00:40:33;5.55;;;4.47;;
35074;SDS011;21260;34.984;32.490;2023-06-22T00:43:00;6.35;;;4.50;;
35074;SDS011;21260;34.984;32.490;2023-06-22T00:45:26;6.38;;;4.28;;
35074;SDS011;21260;34.984;32.490;2023-06-22T00:47:53;7.43;;;4.47;;
35074;SDS011;21260;34.984;32.490;2023-06-22T00:50:24;5.18;;;4.35;;
35074;SDS011;21260;34.984;32.490;2023-06-22T00:52:56;4.97;;;4.15;;
35074;SDS011;21260;34.984;32.490;2023-06-22T00:55:38;6.20;;;4.50;;
35074;SDS011;21260;34.984;32.490;2023-06-22T00:58:12;4.57;;;4.15;;
35074;SDS011;21260;34.984;32.490;2023-06-22T01:00:39;6.10;;;4.10;;
35074;SDS011;21260;34.984;32.490;2023-06-22T01:03:06;5.35;;;4.05;;
35074;SDS011;21260;34.984;32.490;2023-06-22T01:05:34;4.90;;;4.03;;
35074;SDS011;21260;34.984;32.490;2023-06-22T01:10:53;4.93;;;4.07;;
35074;SDS011;21260;34.984;32.490;2023-06-22T01:16:31;6.10;;;3.73;;
35074;SDS011;21260;34.984;32.490;2023-06-22T01:22:07;5.43;;;3.65;;
35074;SDS011;21260;34.984;32.490;2023-06-22T01:30:30;5.30;;;3.83;;
35074;SDS011;21260;34.984;32.490;2023-06-22T01:32:59;5.32;;;3.97;;
35074;SDS011;21260;34.984;32.490;2023-06-22T01:35:30;5.57;;;4.10;;
35074;SDS011;21260;34.984;32.490;2023-06-22T01:37:57;5.30;;;3.53;;
35074;SDS011;21260;34.984;32.490;2023-06-22T01:40:24;5.82;;;3.97;;
35074;SDS011;21260;34.984;32.490;2023-06-22T01:42:52;4.40;;;3.70;;
35074;SDS011;21260;34.984;32.490;2023-06-22T01:45:19;5.57;;;4.10;;
35074;SDS011;21260;34.984;32.490;2023-06-22T01:47:47;6.20;;;4.10;;
35074;SDS011;21260;34.984;32.490;2023-06-22T01:50:13;4.57;;;4.03;;
35074;SDS011;21260;34.984;32.490;2023-06-22T01:52:40;4.97;;;3.70;;
35074;SDS011;21260;34.984;32.490;2023-06-22T01:55:06;4.90;;;4.10;;
35074;SDS011;21260;34.984;32.490;2023-06-22T01:57:33;4.47;;;3.80;;
35074;SDS011;21260;34.984;32.490;2023-06-22T02:00:01;5.05;;;3.90;;
35074;SDS011;21260;34.984;32.490;2023-06-22T02:05:36;6.95;;;3.80;;
35074;SDS011;21260;34.984;32.490;2023-06-22T02:08:30;4.50;;;3.63;;
35074;SDS011;21260;34.984;32.490;2023-06-22T02:11:05;7.18;;;4.20;;
35074;SDS011;21260;34.984;32.490;2023-06-22T02:13:34;5.55;;;3.42;;
35074;SDS011;21260;34.984;32.490;2023-06-22T02:16:03;4.75;;;3.60;;
35074;SDS011;21260;34.984;32.490;2023-06-22T02:18:29;4.25;;;3.53;;
35074;SDS011;21260;34.984;32.490;2023-06-22T02:20:56;5.93;;;3.70;;
35074;SDS011;21260;34.984;32.490;2023-06-22T02:23:22;5.35;;;3.40;;
35074;SDS011;21260;34.984;32.490;2023-06-22T02:25:49;4.32;;;3.47;;
35074;SDS011;21260;34.984;32.490;2023-06-22T02:28:15;4.88;;;3.50;;
35074;SDS011;21260;34.984;32.490;2023-06-22T02:30:41;4.55;;;3.63;;
35074;SDS011;21260;34.984;32.490;2023-06-22T02:33:07;4.82;;;3.60;;
35074;SDS011;21260;34.984;32.490;2023-06-22T02:35:34;4.13;;;3.50;;
35074;SDS011;21260;34.984;32.490;2023-06-22T02:38:01;4.75;;;3.55;;
35074;SDS011;21260;34.984;32.490;2023-06-22T02:40:29;4.30;;;3.30;;
35074;SDS011;21260;34.984;32.490;2023-06-22T02:42:56;4.53;;;3.50;;
35074;SDS011;21260;34.984;32.490;2023-06-22T02:45:27;3.85;;;3.40;;
35074;SDS011;21260;34.984;32.490;2023-06-22T02:47:53;4.97;;;3.50;;
35074;SDS011;21260;34.984;32.490;2023-06-22T02:50:21;4.85;;;3.50;;
35074;SDS011;21260;34.984;32.490;2023-06-22T02:52:47;4.32;;;3.55;;
35074;SDS011;21260;34.984;32.490;2023-06-22T02:55:13;5.40;;;3.50;;
35074;SDS011;21260;34.984;32.490;2023-06-22T02:57:40;4.70;;;3.42;;
35074;SDS011;21260;34.984;32.490;2023-06-22T03:00:09;4.13;;;3.60;;
35074;SDS011;21260;34.984;32.490;2023-06-22T03:02:46;3.95;;;3.45;;
35074;SDS011;21260;34.984;32.490;2023-06-22T03:05:13;6.40;;;3.85;;
35074;SDS011;21260;34.984;32.490;2023-06-22T03:07:43;4.73;;;3.67;;
35074;SDS011;21260;34.984;32.490;2023-06-22T03:10:11;4.80;;;3.65;;
35074;SDS011;21260;34.984;32.490;2023-06-22T03:12:39;4.27;;;3.70;;
35074;SDS011;21260;34.984;32.490;2023-06-22T03:15:07;4.30;;;3.58;;
35074;SDS011;21260;34.984;32.490;2023-06-22T03:17:38;5.97;;;3.60;;
35074;SDS011;21260;34.984;32.490;2023-06-22T03:20:06;4.60;;;3.72;;
35074;SDS011;21260;34.984;32.490;2023-06-22T03:22:35;4.97;;;3.50;;
35074;SDS011;21260;34.984;32.490;2023-06-22T03:25:09;6.57;;;3.77;;
35074;SDS011;21260;34.984;32.490;2023-06-22T03:27:38;4.07;;;3.40;;
35074;SDS011;21260;34.984;32.490;2023-06-22T03:30:10;4.68;;;3.75;;
35074;SDS011;21260;34.984;32.490;2023-06-22T03:32:37;4.53;;;3.50;;
35074;SDS011;21260;34.984;32.490;2023-06-22T03:35:03;3.97;;;3.25;;
35074;SDS011;21260;34.984;32.490;2023-06-22T03:37:31;4.30;;;2.90;;
35074;SDS011;21260;34.984;32.490;2023-06-22T03:39:58;3.08;;;2.67;;
35074;SDS011;21260;34.984;32.490;2023-06-22T03:42:25;4.78;;;2.80;;
35074;SDS011;21260;34.984;32.490;2023-06-22T03:44:52;4.78;;;2.78;;
35074;SDS011;21260;34.984;32.490;2023-06-22T03:47:18;3.42;;;2.92;;
35074;SDS011;21260;34.984;32.490;2023-06-22T03:49:44;3.97;;;2.58;;
35074;SDS011;21260;34.984;32.490;2023-06-22T03:52:11;3.78;;;2.75;;
35074;SDS011;21260;34.984;32.490;2023-06-22T03:54:37;4.07;;;2.43;;
35074;SDS011;21260;34.984;32.490;2023-06-22T03:57:04;4.82;;;2.60;;
35074;SDS011;21260;34.984;32.490;2023-06-22T03:59:31;3.90;;;2.50;;
35074;SDS011;21260;34.984;32.490;2023-06-22T04:01:57;6.32;;;3.17;;
35074;SDS011;21260;34.984;32.490;2023-06-22T04:04:23;3.20;;;2.80;;
35074;SDS011;21260;34.984;32.490;2023-06-22T04:06:50;4.70;;;2.50;;
35074;SDS011;21260;34.984;32.490;2023-06-22T04:09:16;4.45;;;2.90;;
35074;SDS011;21260;34.984;32.490;2023-06-22T04:11:42;3.92;;;2.85;;
35074;SDS011;21260;34.984;32.490;2023-06-22T04:14:09;4.97;;;3.10;;
35074;SDS011;21260;34.984;32.490;2023-06-22T04:16:35;5.20;;;3.37;;
35074;SDS011;21260;34.984;32.490;2023-06-22T04:19:01;3.45;;;2.70;;
35074;SDS011;21260;34.984;32.490;2023-06-22T04:21:27;4.55;;;2.83;;
35074;SDS011;21260;34.984;32.490;2023-06-22T04:23:53;3.25;;;2.90;;
35074;SDS011;21260;34.984;32.490;2023-06-22T04:26:20;4.25;;;2.97;;
35074;SDS011;21260;34.984;32.490;2023-06-22T04:28:46;3.60;;;2.70;;
35074;SDS011;21260;34.984;32.490;2023-06-22T04:31:20;3.47;;;2.70;;
35074;SDS011;21260;34.984;32.490;2023-06-22T04:33:57;4.63;;;2.75;;
35074;SDS011;21260;34.984;32.490;2023-06-22T04:36:32;3.72;;;2.70;;
35074;SDS011;21260;34.984;32.490;2023-06-22T04:39:07;3.33;;;2.53;;
35074;SDS011;21260;34.984;32.490;2023-06-22T04:41:39;3.40;;;2.78;;
35074;SDS011;21260;34.984;32.490;2023-06-22T04:44:09;4.13;;;3.03;;
35074;SDS011;21260;34.984;32.490;2023-06-22T04:46:58;3.47;;;2.80;;
35074;SDS011;21260;34.984;32.490;2023-06-22T04:49:29;4.90;;;3.40;;
35074;SDS011;21260;34.984;32.490;2023-06-22T04:52:04;4.50;;;3.30;;
35074;SDS011;21260;34.984;32.490;2023-06-22T04:54:36;5.13;;;3.50;;
35074;SDS011;21260;34.984;32.490;2023-06-22T04:57:13;5.32;;;3.50;;
35074;SDS011;21260;34.984;32.490;2023-06-22T04:59:40;4.70;;;3.15;;
35074;SDS011;21260;34.984;32.490;2023-06-22T05:02:07;3.30;;;3.00;;
35074;SDS011;21260;34.984;32.490;2023-06-22T05:04:35;4.70;;;3.25;;
35074;SDS011;21260;34.984;32.490;2023-06-22T05:07:03;4.60;;;3.55;;
35074;SDS011;21260;34.984;32.490;2023-06-22T05:09:31;4.40;;;3.13;;
35074;SDS011;21260;34.984;32.490;2023-06-22T05:11:59;4.68;;;3.20;;
35074;SDS011;21260;34.984;32.490;2023-06-22T05:14:28;7.43;;;3.47;;
35074;SDS011;21260;34.984;32.490;2023-06-22T05:16:56;4.20;;;3.67;;
35074;SDS011;21260;34.984;32.490;2023-06-22T05:19:28;5.07;;;3.73;;
35074;SDS011;21260;34.984;32.490;2023-06-22T05:21:58;5.40;;;3.70;;
35074;SDS011;21260;34.984;32.490;2023-06-22T05:24:24;4.03;;;3.60;;
35074;SDS011;21260;34.984;32.490;2023-06-22T05:26:52;4.63;;;3.53;;
35074;SDS011;21260;34.984;32.490;2023-06-22T05:29:18;5.25;;;3.72;;
35074;SDS011;21260;34.984;32.490;2023-06-22T05:31:44;5.00;;;3.60;;
35074;SDS011;21260;34.984;32.490;2023-06-22T05:34:11;4.18;;;3.45;;
35074;SDS011;21260;34.984;32.490;2023-06-22T05:36:37;3.90;;;3.50;;
35074;SDS011;21260;34.984;32.490;2023-06-22T05:39:10;6.20;;;3.40;;
35074;SDS011;21260;34.984;32.490;2023-06-22T05:41:41;4.45;;;3.55;;
35074;SDS011;21260;34.984;32.490;2023-06-22T05:44:10;4.82;;;3.38;;
35074;SDS011;21260;34.984;32.490;2023-06-22T05:46:39;5.18;;;3.33;;
35074;SDS011;21260;34.984;32.490;2023-06-22T05:49:13;4.38;;;3.20;;
35074;SDS011;21260;34.984;32.490;2023-06-22T05:51:40;5.80;;;3.17;;
35074;SDS011;21260;34.984;32.490;2023-06-22T05:54:08;5.75;;;2.80;;
35074;SDS011;21260;34.984;32.490;2023-06-22T05:56:35;4.50;;;2.90;;
35074;SDS011;21260;34.984;32.490;2023-06-22T05:59:01;7.07;;;3.50;;
35074;SDS011;21260;34.984;32.490;2023-06-22T06:01:27;7.05;;;3.40;;
35074;SDS011;21260;34.984;32.490;2023-06-22T06:03:53;4.32;;;3.60;;
35074;SDS011;21260;34.984;32.490;2023-06-22T06:06:20;6.50;;;3.13;;
35074;SDS011;21260;34.984;32.490;2023-06-22T06:08:49;3.85;;;3.00;;
35074;SDS011;21260;34.984;32.490;2023-06-22T06:11:15;4.88;;;3.20;;
35074;SDS011;21260;34.984;32.490;2023-06-22T06:13:41;6.95;;;3.60;;
35074;SDS011;21260;34.984;32.490;2023-06-22T06:16:07;5.10;;;3.60;;
35074;SDS011;21260;34.984;32.490;2023-06-22T06:18:34;5.43;;;3.80;;
35074;SDS011;21260;34.984;32.490;2023-06-22T06:21:00;4.90;;;3.80;;
35074;SDS011;21260;34.984;32.490;2023-06-22T06:23:26;5.67;;;4.00;;
35074;SDS011;21260;34.984;32.490;2023-06-22T06:25:52;6.03;;;3.65;;
35074;SDS011;21260;34.984;32.490;2023-06-22T06:28:19;6.47;;;3.70;;
35074;SDS011;21260;34.984;32.490;2023-06-22T06:30:45;7.38;;;3.67;;
35074;SDS011;21260;34.984;32.490;2023-06-22T06:33:12;6.05;;;3.78;;
35074;SDS011;21260;34.984;32.490;2023-06-22T06:35:39;6.20;;;3.80;;
35074;SDS011;21260;34.984;32.490;2023-06-22T06:38:05;3.90;;;3.50;;
35074;SDS011;21260;34.984;32.490;2023-06-22T06:40:31;4.95;;;3.83;;
35074;SDS011;21260;34.984;32.490;2023-06-22T06:42:58;8.15;;;3.85;;
35074;SDS011;21260;34.984;32.490;2023-06-22T06:45:24;4.20;;;3.50;;
35074;SDS011;21260;34.984;32.490;2023-06-22T06:47:53;5.30;;;3.60;;
35074;SDS011;21260;34.984;32.490;2023-06-22T06:50:20;6.25;;;3.58;;
35074;SDS011;21260;34.984;32.490;2023-06-22T06:52:47;6.15;;;3.63;;
35074;SDS011;21260;34.984;32.490;2023-06-22T06:55:17;6.55;;;3.92;;
35074;SDS011;21260;34.984;32.490;2023-06-22T06:57:45;6.67;;;3.70;;
35074;SDS011;21260;34.984;32.490;2023-06-22T07:00:15;6.15;;;3.88;;
35074;SDS011;21260;34.984;32.490;2023-06-22T07:02:42;6.05;;;3.55;;
35074;SDS011;21260;34.984;32.490;2023-06-22T07:05:11;5.85;;;3.45;;
35074;SDS011;21260;34.984;32.490;2023-06-22T07:07:38;5.43;;;3.90;;
35074;SDS011;21260;34.984;32.490;2023-06-22T07:10:06;4.13;;;3.47;;
35074;SDS011;21260;34.984;32.490;2023-06-22T07:12:33;6.53;;;3.90;;
35074;SDS011;21260;34.984;32.490;2023-06-22T07:15:03;6.20;;;3.80;;
35074;SDS011;21260;34.984;32.490;2023-06-22T07:17:35;6.80;;;3.70;;
35074;SDS011;21260;34.984;32.490;2023-06-22T07:20:02;6.38;;;3.90;;
35074;SDS011;21260;34.984;32.490;2023-06-22T07:22:41;5.80;;;3.88;;
35074;SDS011;21260;34.984;32.490;2023-06-22T07:25:10;5.93;;;3.80;;
35074;SDS011;21260;34.984;32.490;2023-06-22T07:27:40;5.70;;;3.83;;
35074;SDS011;21260;34.984;32.490;2023-06-22T07:30:24;4.28;;;3.80;;
35074;SDS011;21260;34.984;32.490;2023-06-22T07:32:52;4.70;;;3.60;;
35074;SDS011;21260;34.984;32.490;2023-06-22T07:35:18;5.38;;;3.85;;
35074;SDS011;21260;34.984;32.490;2023-06-22T07:37:44;6.25;;;3.80;;
35074;SDS011;21260;34.984;32.490;2023-06-22T07:40:11;6.10;;;3.80;;
35074;SDS011;21260;34.984;32.490;2023-06-22T07:42:38;5.38;;;3.60;;
35074;SDS011;21260;34.984;32.490;2023-06-22T07:45:05;5.68;;;3.55;;
35074;SDS011;21260;34.984;32.490;2023-06-22T07:47:33;4.80;;;3.60;;
35074;SDS011;21260;34.984;32.490;2023-06-22T07:50:00;5.50;;;3.83;;
35074;SDS011;21260;34.984;32.490;2023-06-22T07:52:28;5.80;;;3.63;;
35074;SDS011;21260;34.984;32.490;2023-06-22T07:54:55;5.45;;;3.80;;
35074;SDS011;21260;34.984;32.490;2023-06-22T07:57:22;6.60;;;3.67;;
35074;SDS011;21260;34.984;32.490;2023-06-22T07:59:48;5.63;;;3.40;;
35074;SDS011;21260;34.984;32.490;2023-06-22T08:02:14;6.65;;;3.97;;
35074;SDS011;21260;34.984;32.490;2023-06-22T08:04:41;7.35;;;3.95;;
35074;SDS011;21260;34.984;32.490;2023-06-22T08:07:07;4.63;;;3.50;;
35074;SDS011;21260;34.984;32.490;2023-06-22T08:09:34;5.97;;;3.70;;
35074;SDS011;21260;34.984;32.490;2023-06-22T08:12:01;6.38;;;3.90;;
35074;SDS011;21260;34.984;32.490;2023-06-22T08:14:27;4.68;;;3.80;;
35074;SDS011;21260;34.984;32.490;2023-06-22T08:16:55;6.32;;;3.75;;
35074;SDS011;21260;34.984;32.490;2023-06-22T08:19:21;5.32;;;4.00;;
35074;SDS011;21260;34.984;32.490;2023-06-22T08:21:48;5.80;;;3.78;;
35074;SDS011;21260;34.984;32.490;2023-06-22T08:24:14;4.13;;;3.63;;
35074;SDS011;21260;34.984;32.490;2023-06-22T08:26:40;5.97;;;3.60;;
35074;SDS011;21260;34.984;32.490;2023-06-22T08:29:07;5.27;;;3.73;;
35074;SDS011;21260;34.984;32.490;2023-06-22T08:31:33;5.33;;;3.33;;
35074;SDS011;21260;34.984;32.490;2023-06-22T08:34:00;7.50;;;3.60;;
35074;SDS011;21260;34.984;32.490;2023-06-22T08:36:26;6.30;;;3.60;;
35074;SDS011;21260;34.984;32.490;2023-06-22T08:38:58;4.88;;;3.38;;
35074;SDS011;21260;34.984;32.490;2023-06-22T08:41:26;5.15;;;3.50;;
35074;SDS011;21260;34.984;32.490;2023-06-22T08:43:53;5.03;;;3.53;;
35074;SDS011;21260;34.984;32.490;2023-06-22T08:46:19;6.72;;;3.45;;
35074;SDS011;21260;34.984;32.490;2023-06-22T08:48:48;6.40;;;3.67;;
35074;SDS011;21260;34.984;32.490;2023-06-22T08:51:16;8.60;;;3.42;;
35074;SDS011;21260;34.984;32.490;2023-06-22T08:53:42;5.20;;;3.40;;
35074;SDS011;21260;34.984;32.490;2023-06-22T08:56:10;6.57;;;3.30;;
35074;SDS011;21260;34.984;32.490;2023-06-22T08:58:36;7.50;;;3.20;;
35074;SDS011;21260;34.984;32.490;2023-06-22T09:01:03;6.90;;;3.25;;
35074;SDS011;21260;34.984;32.490;2023-06-22T09:03:29;7.32;;;3.20;;
35074;SDS011;21260;34.984;32.490;2023-06-22T09:05:58;6.47;;;3.08;;
35074;SDS011;21260;34.984;32.490;2023-06-22T09:08:24;6.78;;;3.25;;
35074;SDS011;21260;34.984;32.490;2023-06-22T09:10:51;6.22;;;2.90;;
35074;SDS011;21260;34.984;32.490;2023-06-22T09:13:17;10.43;;;2.90;;
35074;SDS011;21260;34.984;32.490;2023-06-22T09:15:44;9.88;;;3.20;;
35074;SDS011;21260;34.984;32.490;2023-06-22T09:18:10;7.80;;;3.42;;
35074;SDS011;21260;34.984;32.490;2023-06-22T09:20:37;17.40;;;2.95;;
35074;SDS011;21260;34.984;32.490;2023-06-22T09:23:03;6.30;;;2.92;;
35074;SDS011;21260;34.984;32.490;2023-06-22T09:25:29;5.55;;;2.92;;
35074;SDS011;21260;34.984;32.490;2023-06-22T09:27:57;7.88;;;2.90;;
35074;SDS011;21260;34.984;32.490;2023-06-22T09:30:23;5.18;;;2.70;;
35074;SDS011;21260;34.984;32.490;2023-06-22T09:32:49;15.32;;;2.80;;
35074;SDS011;21260;34.984;32.490;2023-06-22T09:35:16;6.07;;;2.63;;
35074;SDS011;21260;34.984;32.490;2023-06-22T09:37:43;3.53;;;2.03;;
35074;SDS011;21260;34.984;32.490;2023-06-22T09:40:10;5.13;;;2.42;;
35074;SDS011;21260;34.984;32.490;2023-06-22T09:42:38;3.95;;;2.47;;
35074;SDS011;21260;34.984;32.490;2023-06-22T09:45:05;15.68;;;7.28;;
35074;SDS011;21260;34.984;32.490;2023-06-22T09:47:31;61.55;;;21.80;;
35074;SDS011;21260;34.984;32.490;2023-06-22T09:49:58;32.72;;;13.40;;
35074;SDS011;21260;34.984;32.490;2023-06-22T09:52:25;27.58;;;12.65;;
35074;SDS011;21260;34.984;32.490;2023-06-22T09:54:51;5.07;;;2.83;;
35074;SDS011;21260;34.984;32.490;2023-06-22T09:57:18;3.88;;;2.80;;
35074;SDS011;21260;34.984;32.490;2023-06-22T09:59:44;4.03;;;2.58;;
35074;SDS011;21260;34.984;32.490;2023-06-22T10:02:10;4.82;;;2.67;;
35074;SDS011;21260;34.984;32.490;2023-06-22T10:04:36;17.92;;;3.35;;
35074;SDS011;21260;34.984;32.490;2023-06-22T10:07:03;5.95;;;2.80;;
35074;SDS011;21260;34.984;32.490;2023-06-22T10:09:29;7.13;;;2.88;;
35074;SDS011;21260;34.984;32.490;2023-06-22T10:11:55;5.95;;;2.85;;
35074;SDS011;21260;34.984;32.490;2023-06-22T10:14:22;9.73;;;2.85;;
35074;SDS011;21260;34.984;32.490;2023-06-22T10:16:49;21.83;;;4.22;;
35074;SDS011;21260;34.984;32.490;2023-06-22T10:19:17;37.72;;;4.88;;
35074;SDS011;21260;34.984;32.490;2023-06-22T10:21:44;41.45;;;5.93;;
35074;SDS011;21260;34.984;32.490;2023-06-22T10:24:10;6.05;;;2.80;;
35074;SDS011;21260;34.984;32.490;2023-06-22T10:26:36;5.00;;;2.72;;
35074;SDS011;21260;34.984;32.490;2023-06-22T10:29:03;5.20;;;2.30;;
35074;SDS011;21260;34.984;32.490;2023-06-22T10:31:29;4.32;;;2.38;;
35074;SDS011;21260;34.984;32.490;2023-06-22T10:33:55;5.80;;;2.50;;
35074;SDS011;21260;34.984;32.490;2023-06-22T10:36:23;3.78;;;2.10;;
35074;SDS011;21260;34.984;32.490;2023-06-22T10:38:49;6.97;;;2.53;;
35074;SDS011;21260;34.984;32.490;2023-06-22T10:41:15;3.95;;;2.50;;
35074;SDS011;21260;34.984;32.490;2023-06-22T10:43:42;4.73;;;2.80;;
35074;SDS011;21260;34.984;32.490;2023-06-22T10:46:09;6.40;;;3.43;;
35074;SDS011;21260;34.984;32.490;2023-06-22T10:48:35;11.32;;;3.17;;
35074;SDS011;21260;34.984;32.490;2023-06-22T10:51:01;7.38;;;3.28;;
35074;SDS011;21260;34.984;32.490;2023-06-22T10:53:28;5.50;;;3.30;;
35074;SDS011;21260;34.984;32.490;2023-06-22T10:55:54;6.28;;;3.30;;
35074;SDS011;21260;34.984;32.490;2023-06-22T10:58:20;6.65;;;3.22;;
35074;SDS011;21260;34.984;32.490;2023-06-22T11:00:46;8.38;;;3.33;;
35074;SDS011;21260;34.984;32.490;2023-06-22T11:03:12;6.22;;;3.30;;
35074;SDS011;21260;34.984;32.490;2023-06-22T11:05:39;5.57;;;3.25;;
35074;SDS011;21260;34.984;32.490;2023-06-22T11:08:07;5.15;;;3.17;;
35074;SDS011;21260;34.984;32.490;2023-06-22T11:10:33;5.22;;;3.30;;
35074;SDS011;21260;34.984;32.490;2023-06-22T11:12:59;4.53;;;3.10;;
35074;SDS011;21260;34.984;32.490;2023-06-22T11:15:27;6.55;;;3.28;;
35074;SDS011;21260;34.984;32.490;2023-06-22T11:17:54;5.03;;;3.30;;
35074;SDS011;21260;34.984;32.490;2023-06-22T11:20:20;10.43;;;3.15;;
35074;SDS011;21260;34.984;32.490;2023-06-22T11:22:46;5.90;;;3.20;;
35074;SDS011;21260;34.984;32.490;2023-06-22T11:25:13;5.35;;;3.17;;
35074;SDS011;21260;34.984;32.490;2023-06-22T11:27:39;3.95;;;3.13;;
35074;SDS011;21260;34.984;32.490;2023-06-22T11:30:06;7.63;;;3.20;;
35074;SDS011;21260;34.984;32.490;2023-06-22T11:32:33;5.93;;;2.88;;
35074;SDS011;21260;34.984;32.490;2023-06-22T11:35:00;5.53;;;3.27;;
35074;SDS011;21260;34.984;32.490;2023-06-22T11:37:26;6.03;;;3.00;;
35074;SDS011;21260;34.984;32.490;2023-06-22T11:39:53;7.00;;;3.13;;
35074;SDS011;21260;34.984;32.490;2023-06-22T11:42:21;4.72;;;3.00;;
35074;SDS011;21260;34.984;32.490;2023-06-22T11:44:48;43.53;;;17.80;;
35074;SDS011;21260;34.984;32.490;2023-06-22T11:47:15;6.20;;;3.45;;
35074;SDS011;21260;34.984;32.490;2023-06-22T11:49:41;9.02;;;3.58;;
35074;SDS011;21260;34.984;32.490;2023-06-22T11:52:07;6.40;;;3.30;;
35074;SDS011;21260;34.984;32.490;2023-06-22T11:54:34;6.38;;;3.25;;
35074;SDS011;21260;34.984;32.490;2023-06-22T11:57:00;27.93;;;12.47;;
35074;SDS011;21260;34.984;32.490;2023-06-22T11:59:27;6.22;;;3.22;;
35074;SDS011;21260;34.984;32.490;2023-06-22T12:01:53;4.65;;;3.17;;
35074;SDS011;21260;34.984;32.490;2023-06-22T12:04:19;6.82;;;3.60;;
35074;SDS011;21260;34.984;32.490;2023-06-22T12:06:45;7.82;;;2.83;;
35074;SDS011;21260;34.984;32.490;2023-06-22T12:09:12;6.35;;;3.20;;
35074;SDS011;21260;34.984;32.490;2023-06-22T12:11:39;4.97;;;3.40;;
35074;SDS011;21260;34.984;32.490;2023-06-22T12:14:05;9.82;;;3.00;;
35074;SDS011;21260;34.984;32.490;2023-06-22T12:16:31;5.68;;;2.90;;
35074;SDS011;21260;34.984;32.490;2023-06-22T12:18:57;6.57;;;3.00;;
35074;SDS011;21260;34.984;32.490;2023-06-22T12:21:24;4.53;;;2.95;;
35074;SDS011;21260;34.984;32.490;2023-06-22T12:23:50;5.40;;;3.05;;
35074;SDS011;21260;34.984;32.490;2023-06-22T12:26:16;5.38;;;3.10;;
35074;SDS011;21260;34.984;32.490;2023-06-22T12:28:42;5.88;;;2.90;;
35074;SDS011;21260;34.984;32.490;2023-06-22T12:31:09;4.90;;;3.05;;
35074;SDS011;21260;34.984;32.490;2023-06-22T12:33:35;5.82;;;3.20;;
35074;SDS011;21260;34.984;32.490;2023-06-22T12:36:01;6.78;;;3.15;;
35074;SDS011;21260;34.984;32.490;2023-06-22T12:38:30;7.88;;;3.25;;
35074;SDS011;21260;34.984;32.490;2023-06-22T12:40:56;5.75;;;2.83;;
35074;SDS011;21260;34.984;32.490;2023-06-22T12:43:22;6.03;;;3.08;;
35074;SDS011;21260;34.984;32.490;2023-06-22T12:45:48;4.35;;;2.88;;
35074;SDS011;21260;34.984;32.490;2023-06-22T12:48:14;5.47;;;2.97;;
35074;SDS011;21260;34.984;32.490;2023-06-22T12:50:42;3.90;;;2.80;;
35074;SDS011;21260;34.984;32.490;2023-06-22T12:53:08;7.18;;;2.90;;
35074;SDS011;21260;34.984;32.490;2023-06-22T12:55:34;5.97;;;3.03;;
35074;SDS011;21260;34.984;32.490;2023-06-22T12:58:01;6.83;;;3.50;;
35074;SDS011;21260;34.984;32.490;2023-06-22T13:00:27;7.03;;;3.07;;
35074;SDS011;21260;34.984;32.490;2023-06-22T13:02:53;4.53;;;2.97;;
35074;SDS011;21260;34.984;32.490;2023-06-22T13:05:19;5.83;;;3.43;;
35074;SDS011;21260;34.984;32.490;2023-06-22T13:07:45;4.50;;;3.00;;
35074;SDS011;21260;34.984;32.490;2023-06-22T13:10:12;8.60;;;3.37;;
35074;SDS011;21260;34.984;32.490;2023-06-22T13:12:38;4.43;;;2.88;;
35074;SDS011;21260;34.984;32.490;2023-06-22T13:15:04;5.65;;;2.70;;
35074;SDS011;21260;34.984;32.490;2023-06-22T13:17:31;5.50;;;2.73;;
35074;SDS011;21260;34.984;32.490;2023-06-22T13:19:58;6.25;;;2.80;;
35074;SDS011;21260;34.984;32.490;2023-06-22T13:22:28;4.40;;;2.85;;
35074;SDS011;21260;34.984;32.490;2023-06-22T13:24:57;4.30;;;2.80;;
35074;SDS011;21260;34.984;32.490;2023-06-22T13:27:24;6.18;;;2.78;;
35074;SDS011;21260;34.984;32.490;2023-06-22T13:29:50;8.98;;;2.90;;
35074;SDS011;21260;34.984;32.490;2023-06-22T13:32:17;4.18;;;2.42;;
35074;SDS011;21260;34.984;32.490;2023-06-22T13:34:44;6.30;;;2.70;;
35074;SDS011;21260;34.984;32.490;2023-06-22T13:37:10;5.55;;;2.80;;
35074;SDS011;21260;34.984;32.490;2023-06-22T13:39:36;4.43;;;3.22;;
35074;SDS011;21260;34.984;32.490;2023-06-22T13:42:03;3.95;;;2.70;;
35074;SDS011;21260;34.984;32.490;2023-06-22T13:44:30;5.55;;;2.97;;
35074;SDS011;21260;34.984;32.490;2023-06-22T13:46:56;5.13;;;2.80;;
35074;SDS011;21260;34.984;32.490;2023-06-22T13:49:22;4.20;;;2.92;;
35074;SDS011;21260;34.984;32.490;2023-06-22T13:51:48;6.40;;;2.90;;
35074;SDS011;21260;34.984;32.490;2023-06-22T13:54:15;6.82;;;3.15;;
35074;SDS011;21260;34.984;32.490;2023-06-22T13:56:42;6.20;;;2.70;;
35074;SDS011;21260;34.984;32.490;2023-06-22T13:59:08;6.35;;;3.05;;
35074;SDS011;21260;34.984;32.490;2023-06-22T14:01:37;4.87;;;2.90;;
35074;SDS011;21260;34.984;32.490;2023-06-22T14:04:05;6.13;;;2.60;;
35074;SDS011;21260;34.984;32.490;2023-06-22T14:06:31;45.97;;;5.30;;
35074;SDS011;21260;34.984;32.490;2023-06-22T14:08:57;90.65;;;8.93;;
35074;SDS011;21260;34.984;32.490;2023-06-22T14:11:24;19.57;;;4.07;;
35074;SDS011;21260;34.984;32.490;2023-06-22T14:13:51;48.22;;;6.28;;
35074;SDS011;21260;34.984;32.490;2023-06-22T14:16:17;151.38;;;12.10;;
35074;SDS011;21260;34.984;32.490;2023-06-22T14:18:44;117.00;;;9.95;;
35074;SDS011;21260;34.984;32.490;2023-06-22T14:21:11;22.02;;;4.65;;
35074;SDS011;21260;34.984;32.490;2023-06-22T14:23:37;10.07;;;3.00;;
35074;SDS011;21260;34.984;32.490;2023-06-22T14:26:03;5.95;;;2.80;;
35074;SDS011;21260;34.984;32.490;2023-06-22T14:28:30;6.57;;;2.83;;
35074;SDS011;21260;34.984;32.490;2023-06-22T14:30:56;5.60;;;2.78;;
35074;SDS011;21260;34.984;32.490;2023-06-22T14:33:23;4.32;;;2.60;;
35074;SDS011;21260;34.984;32.490;2023-06-22T14:35:49;3.45;;;2.47;;
35074;SDS011;21260;34.984;32.490;2023-06-22T14:38:15;4.50;;;2.50;;
35074;SDS011;21260;34.984;32.490;2023-06-22T14:40:41;3.70;;;2.67;;
35074;SDS011;21260;34.984;32.490;2023-06-22T14:43:08;6.30;;;3.00;;
35074;SDS011;21260;34.984;32.490;2023-06-22T14:45:34;8.50;;;2.80;;
35074;SDS011;21260;34.984;32.490;2023-06-22T14:48:00;4.15;;;2.30;;
35074;SDS011;21260;34.984;32.490;2023-06-22T14:50:26;4.72;;;2.22;;
35074;SDS011;21260;34.984;32.490;2023-06-22T14:52:53;4.30;;;2.30;;